Bandido — WDC5350 — position and weather

sailwx.info

Track history (hours):
 
Tides and Currents Weather Stations Pressure Air Temp Water Temp Dewpoint Dewpoint Depression Visibility Wind Speed Wind Dir Waves Ship Positions

Bandido

Owner: Seidner, Murrey, Raleigh, NC. More information available from US FCC via Universal Licensing System.

Last reported at 2015-Apr-01 05:28 UTC. Time now 2015-Apr-01 14:32 UTC.
Position N 33°43' W 118°04'.

Length 42 m; draft 2 m.

Type: Pleasure craft. MMSI: 367039780.

Date/timePositionNaut miles runAvg speedWind from/ knotsBaromVisibWave heightAir tempDewpointWater temp
2015-Apr-01 05:28N 33°43' W 118°04'0 0.0
2015-Apr-01 04:18N 33°43' W 118°04'0 0.0
2015-Apr-01 03:33N 33°43' W 118°04'0 0.0
2015-Apr-01 02:29N 33°43' W 118°04'0 0.0
2015-Apr-01 01:32N 33°43' W 118°04'0 0.0
2015-Apr-01 00:33N 33°43' W 118°04'0 0.0
2015-Mar-31 23:33N 33°43' W 118°04'0 0.0
2015-Mar-31 19:33N 33°43' W 118°04'0 0.0
2015-Mar-31 18:20N 33°43' W 118°04'0 0.0
2015-Mar-31 17:23N 33°43' W 118°04'0 0.0
2015-Mar-31 16:32N 33°43' W 118°04'0 0.0
2015-Mar-31 15:27N 33°43' W 118°04'0 0.0
2015-Mar-31 13:33N 33°43' W 118°04'0 0.0
2015-Mar-31 12:22N 33°43' W 118°04'0 0.0
2015-Mar-31 11:33N 33°43' W 118°04'0 0.0
2015-Mar-31 10:33N 33°43' W 118°04'0 0.0
2015-Mar-31 09:33N 33°43' W 118°04'0 0.0
2015-Mar-31 08:34N 33°43' W 118°04'0 0.0
2015-Mar-31 07:33N 33°43' W 118°04'0 0.0
2015-Mar-31 06:30N 33°43' W 118°04'0 0.0
2015-Mar-31 05:31N 33°43' W 118°04'0 0.0
2015-Mar-31 04:19N 33°43' W 118°04'0 0.0
2015-Mar-31 03:33N 33°43' W 118°04'0 0.0
2015-Mar-31 02:33N 33°43' W 118°04'0 0.0
2015-Mar-31 01:33N 33°43' W 118°04'0 0.0
2015-Mar-31 00:33N 33°43' W 118°04'0 0.0
2015-Mar-30 23:33N 33°43' W 118°04'4 1.9
2015-Mar-30 21:33N 33°40' W 118°04'1010.4
2015-Mar-30 20:33N 33°33' W 117°54'1010.1
2015-Mar-30 19:33N 33°26' W 117°45'1010.1
2015-Mar-30 18:33N 33°19' W 117°37'1010.1
2015-Mar-30 17:34N 33°12' W 117°28'1010.2
2015-Mar-30 16:34N 33°03' W 117°22'1010.2
2015-Mar-30 15:33N 32°53' W 117°20'10 9.7
2015-Mar-30 14:33N 32°43' W 117°18'4 3.8
2015-Mar-30 13:34N 32°42' W 117°14'0 0.4
2015-Mar-30 12:33N 32°43' W 117°14'0 0.0
2015-Mar-30 11:33N 32°43' W 117°14'0 0.0
2015-Mar-30 10:33N 32°43' W 117°14'0 0.0
2015-Mar-30 09:34N 32°43' W 117°14'0 0.0
2015-Mar-30 08:33N 32°43' W 117°14'0 0.0
2015-Mar-30 07:34N 32°43' W 117°14'0 0.0
2015-Mar-30 06:29N 32°43' W 117°14'0 0.0
2015-Mar-30 05:33N 32°43' W 117°14'0 0.0
2015-Mar-30 04:33N 32°43' W 117°14'0 0.0
2015-Mar-30 03:32N 32°43' W 117°14'0 0.0
2015-Mar-30 02:34N 32°43' W 117°14'0 0.0
2015-Mar-30 01:33N 32°43' W 117°14'0 0.0
2015-Mar-30 00:33N 32°43' W 117°14'0 0.0
2015-Mar-29 23:33N 32°43' W 117°14'0 0.1
2015-Mar-29 22:33N 32°43' W 117°14'1 0.7
2015-Mar-29 21:32N 32°42' W 117°14'9 8.4
2015-Mar-29 20:29N 32°34' W 117°11'1010.4
2015-Mar-29 19:31N 32°24' W 117°07'1010.1
2015-Mar-29 18:33N 32°15' W 117°03'10 9.9
2015-Mar-29 17:32N 32°06' W 116°58'1110.0
2015-Mar-29 16:29N 31°57' W 116°51'1010.4
2015-Mar-29 15:32N 31°48' W 116°46'  
Track history (hours):
 
Tides and Currents Weather Stations Pressure Air Temp Water Temp Dewpoint Dewpoint Depression Visibility Wind Speed Wind Dir Waves Ship Positions

Bandido

Owner: Seidner, Murrey, Raleigh, NC. More information available from US FCC via Universal Licensing System.

Last reported at 2015-Apr-01 05:28 UTC. Time now 2015-Apr-01 14:32 UTC.
Position N 33°43' W 118°04'.

Length 42 m; draft 2 m.

Type: Pleasure craft. MMSI: 367039780.

Date/timePositionNaut miles runAvg speedWind from/ knotsBaromVisibWave heightAir tempDewpointWater temp
2015-Apr-01 05:28N 33°43' W 118°04'0 0.0
2015-Apr-01 04:18N 33°43' W 118°04'0 0.0
2015-Apr-01 03:33N 33°43' W 118°04'0 0.0
2015-Apr-01 02:29N 33°43' W 118°04'0 0.0
2015-Apr-01 01:32N 33°43' W 118°04'0 0.0
2015-Apr-01 00:33N 33°43' W 118°04'0 0.0
2015-Mar-31 23:33N 33°43' W 118°04'0 0.0
2015-Mar-31 19:33N 33°43' W 118°04'0 0.0
2015-Mar-31 18:20N 33°43' W 118°04'0 0.0
2015-Mar-31 17:23N 33°43' W 118°04'0 0.0
2015-Mar-31 16:32N 33°43' W 118°04'0 0.0
2015-Mar-31 15:27N 33°43' W 118°04'0 0.0
2015-Mar-31 13:33N 33°43' W 118°04'0 0.0
2015-Mar-31 12:22N 33°43' W 118°04'0 0.0
2015-Mar-31 11:33N 33°43' W 118°04'0 0.0
2015-Mar-31 10:33N 33°43' W 118°04'0 0.0
2015-Mar-31 09:33N 33°43' W 118°04'0 0.0
2015-Mar-31 08:34N 33°43' W 118°04'0 0.0
2015-Mar-31 07:33N 33°43' W 118°04'0 0.0
2015-Mar-31 06:30N 33°43' W 118°04'0 0.0
2015-Mar-31 05:31N 33°43' W 118°04'0 0.0
2015-Mar-31 04:19N 33°43' W 118°04'0 0.0
2015-Mar-31 03:33N 33°43' W 118°04'0 0.0
2015-Mar-31 02:33N 33°43' W 118°04'0 0.0
2015-Mar-31 01:33N 33°43' W 118°04'0 0.0
2015-Mar-31 00:33N 33°43' W 118°04'0 0.0
2015-Mar-30 23:33N 33°43' W 118°04'4 1.9
2015-Mar-30 21:33N 33°40' W 118°04'1010.4
2015-Mar-30 20:33N 33°33' W 117°54'1010.1
2015-Mar-30 19:33N 33°26' W 117°45'1010.1
2015-Mar-30 18:33N 33°19' W 117°37'1010.1
2015-Mar-30 17:34N 33°12' W 117°28'1010.2
2015-Mar-30 16:34N 33°03' W 117°22'1010.2
2015-Mar-30 15:33N 32°53' W 117°20'10 9.7
2015-Mar-30 14:33N 32°43' W 117°18'4 3.8
2015-Mar-30 13:34N 32°42' W 117°14'0 0.4
2015-Mar-30 12:33N 32°43' W 117°14'0 0.0
2015-Mar-30 11:33N 32°43' W 117°14'0 0.0
2015-Mar-30 10:33N 32°43' W 117°14'0 0.0
2015-Mar-30 09:34N 32°43' W 117°14'0 0.0
2015-Mar-30 08:33N 32°43' W 117°14'0 0.0
2015-Mar-30 07:34N 32°43' W 117°14'0 0.0
2015-Mar-30 06:29N 32°43' W 117°14'0 0.0
2015-Mar-30 05:33N 32°43' W 117°14'0 0.0
2015-Mar-30 04:33N 32°43' W 117°14'0 0.0
2015-Mar-30 03:32N 32°43' W 117°14'0 0.0
2015-Mar-30 02:34N 32°43' W 117°14'0 0.0
2015-Mar-30 01:33N 32°43' W 117°14'0 0.0
2015-Mar-30 00:33N 32°43' W 117°14'0 0.0
2015-Mar-29 23:33N 32°43' W 117°14'0 0.1
2015-Mar-29 22:33N 32°43' W 117°14'1 0.7
2015-Mar-29 21:32N 32°42' W 117°14'9 8.4
2015-Mar-29 20:29N 32°34' W 117°11'1010.4
2015-Mar-29 19:31N 32°24' W 117°07'1010.1
2015-Mar-29 18:33N 32°15' W 117°03'10 9.9
2015-Mar-29 17:32N 32°06' W 116°58'1110.0
2015-Mar-29 16:29N 31°57' W 116°51'1010.4
2015-Mar-29 15:32N 31°48' W 116°46'  

Dump ship's entire track history